Řízení letového provozu České republiky
Letiste: LKVO Aktualizace: 27.02.2017 11:03:16  UTC
 METAR LKVO 27.02. 11:00 ...
METAR LKVO 271100Z 12007KT 090V150 CAVOK 11/01 Q1009=